createdAt,value
2018-03-23T00:00:47.401Z,44.50
2018-03-23T00:03:16.547Z,46.70
2018-03-23T00:05:45.323Z,47.57
2018-03-23T00:08:14.161Z,47.20
2018-03-23T00:10:43.149Z,47.67
2018-03-23T00:13:11.990Z,45.47
2018-03-23T00:15:40.770Z,44.60
2018-03-23T00:18:09.708Z,46.43
2018-03-23T00:20:38.881Z,44.97
2018-03-23T00:23:07.890Z,45.88
2018-03-23T00:25:36.733Z,46.30
2018-03-23T00:28:06.322Z,43.33
2018-03-23T00:30:36.048Z,44.27
2018-03-23T00:33:05.805Z,44.50
2018-03-23T00:35:34.564Z,45.63
2018-03-23T00:38:03.574Z,43.80
2018-03-23T00:40:32.669Z,45.23
2018-03-23T00:43:03.444Z,44.53
2018-03-23T00:45:32.319Z,47.03
2018-03-23T00:48:01.096Z,45.73
2018-03-23T00:50:31.129Z,46.27
2018-03-23T00:53:00.037Z,46.83
2018-03-23T00:55:28.903Z,47.50
2018-03-23T00:57:58.915Z,46.27
2018-03-23T01:00:27.735Z,48.03
2018-03-23T01:02:56.604Z,47.23
2018-03-23T01:05:25.428Z,45.43
2018-03-23T01:07:54.282Z,46.67
2018-03-23T01:10:23.203Z,44.90
2018-03-23T01:12:52.966Z,45.20
2018-03-23T01:15:21.835Z,43.67
2018-03-23T01:17:50.947Z,45.45
2018-03-23T01:20:19.939Z,43.60
2018-03-23T01:22:48.998Z,43.77
2018-03-23T01:25:18.342Z,44.60
2018-03-23T01:27:47.234Z,44.72
2018-03-23T01:30:16.247Z,43.83
2018-03-23T01:32:45.239Z,44.20
2018-03-23T01:35:14.055Z,48.93
2018-03-23T01:37:43.941Z,50.97
2018-03-23T01:40:12.765Z,53.43
2018-03-23T01:42:41.674Z,51.97
2018-03-23T01:45:10.912Z,51.13
2018-03-23T01:47:39.795Z,48.50
2018-03-23T01:50:08.705Z,46.55
2018-03-23T01:52:37.718Z,46.08
2018-03-23T01:55:06.529Z,47.70
2018-03-23T01:57:35.485Z,45.30
2018-03-23T02:00:04.394Z,47.90
2018-03-23T02:02:33.292Z,48.33
2018-03-23T02:05:03.482Z,45.65
2018-03-23T02:07:32.355Z,45.37
2018-03-23T02:10:01.435Z,41.45
2018-03-23T02:12:30.258Z,41.55
2018-03-23T02:14:59.077Z,41.63
2018-03-23T02:17:28.675Z,41.72
2018-03-23T02:19:58.348Z,41.70
2018-03-23T02:22:27.316Z,42.38
2018-03-23T02:24:56.303Z,41.80
2018-03-23T02:27:26.318Z,42.83
2018-03-23T02:29:55.262Z,44.78
2018-03-23T02:32:29.068Z,41.97
2018-03-23T02:34:58.126Z,40.22
2018-03-23T02:37:26.983Z,40.65
2018-03-23T02:39:56.637Z,39.92
2018-03-23T02:42:25.582Z,40.38
2018-03-23T02:44:55.720Z,40.72
2018-03-23T02:47:24.596Z,40.38
2018-03-23T02:49:53.483Z,39.67
2018-03-23T02:52:23.136Z,40.42
2018-03-23T02:54:52.038Z,41.37
2018-03-23T02:57:20.866Z,41.00
2018-03-23T02:59:50.822Z,40.38
2018-03-23T03:02:19.796Z,40.00
2018-03-23T03:04:49.546Z,39.35
2018-03-23T03:07:18.682Z,39.67
2018-03-23T03:09:47.877Z,40.97
2018-03-23T03:12:17.409Z,40.33
2018-03-23T03:14:46.265Z,40.97
2018-03-23T03:17:15.155Z,40.17
2018-03-23T03:19:44.013Z,39.22
2018-03-23T03:22:12.905Z,40.78
2018-03-23T03:24:41.899Z,40.58
2018-03-23T03:27:10.649Z,40.67
2018-03-23T03:29:39.725Z,39.95
2018-03-23T03:32:09.760Z,41.63
2018-03-23T03:34:38.769Z,42.00
2018-03-23T03:37:07.557Z,41.10
2018-03-23T03:39:36.460Z,40.70
2018-03-23T03:42:05.563Z,39.58
2018-03-23T03:44:34.446Z,40.28
2018-03-23T03:47:03.560Z,39.58
2018-03-23T03:49:33.141Z,41.42
2018-03-23T03:52:01.998Z,41.28
2018-03-23T03:54:31.574Z,40.20
2018-03-23T03:57:00.451Z,38.95
2018-03-23T03:59:29.342Z,38.92
2018-03-23T04:01:58.296Z,39.55
2018-03-23T04:04:29.140Z,40.63
2018-03-23T04:07:04.886Z,40.42
2018-03-23T04:09:37.089Z,41.72
2018-03-23T04:12:06.739Z,53.85
2018-03-23T04:14:37.597Z,48.67
2018-03-23T04:17:07.683Z,48.63
2018-03-23T04:19:37.372Z,48.25
2018-03-23T04:22:07.461Z,47.25
2018-03-23T04:24:37.648Z,46.10
2018-03-23T04:27:06.623Z,45.20
2018-03-23T04:29:35.628Z,44.53
2018-03-23T04:32:05.357Z,44.70
2018-03-23T04:34:34.376Z,46.58
2018-03-23T04:37:04.197Z,43.65
2018-03-23T04:39:33.068Z,44.35
2018-03-23T04:42:02.103Z,45.60
2018-03-23T04:44:31.280Z,46.07
2018-03-23T04:47:00.069Z,48.60
2018-03-23T04:49:29.028Z,47.62
2018-03-23T04:51:57.878Z,47.15
2018-03-23T04:54:27.714Z,46.30
2018-03-23T04:56:57.409Z,45.25
2018-03-23T04:59:26.989Z,44.10
2018-03-23T05:01:55.913Z,46.10
2018-03-23T05:04:25.014Z,46.77
2018-03-23T05:06:54.184Z,48.55
2018-03-23T05:09:23.165Z,46.60
2018-03-23T05:11:52.096Z,45.23
2018-03-23T05:14:21.907Z,45.33
2018-03-23T05:16:50.883Z,46.27
2018-03-23T05:19:21.018Z,45.57
2018-03-23T05:21:50.919Z,43.90
2018-03-23T05:24:20.238Z,43.03
2018-03-23T05:26:50.048Z,42.67
2018-03-23T05:29:19.344Z,40.33
2018-03-23T05:31:49.415Z,42.17
2018-03-23T05:34:18.293Z,44.03
2018-03-23T05:36:47.183Z,40.93
2018-03-23T05:39:16.334Z,41.90
2018-03-23T05:41:45.379Z,42.80
2018-03-23T05:44:14.249Z,39.77
2018-03-23T05:46:43.115Z,39.57
2018-03-23T05:49:12.153Z,40.07
2018-03-23T05:51:41.018Z,42.40
2018-03-23T05:54:09.886Z,43.87
2018-03-23T05:56:39.094Z,39.27
2018-03-23T05:59:09.045Z,42.20
2018-03-23T06:01:38.286Z,44.00
2018-03-23T06:04:07.100Z,47.10
2018-03-23T06:06:36.657Z,48.73
2018-03-23T06:09:05.643Z,47.23
2018-03-23T06:11:34.535Z,47.70
2018-03-23T06:14:03.476Z,51.07
2018-03-23T06:16:33.072Z,50.50
2018-03-23T06:19:02.225Z,51.50
2018-03-23T06:21:31.572Z,51.20
2018-03-23T06:24:00.391Z,52.20
2018-03-23T06:26:29.559Z,50.17
2018-03-23T06:28:58.544Z,49.70
2018-03-23T06:31:28.541Z,56.23
2018-03-23T06:33:57.464Z,54.20
2018-03-23T06:36:27.124Z,56.70
2018-03-23T06:38:56.010Z,58.63
2018-03-23T06:41:24.992Z,58.53
2018-03-23T06:43:53.985Z,56.83
2018-03-23T06:46:22.903Z,60.23
2018-03-23T06:48:51.727Z,52.23
2018-03-23T06:51:20.717Z,52.27
2018-03-23T06:53:49.625Z,52.07
2018-03-23T06:56:18.548Z,55.77
2018-03-23T06:58:47.401Z,55.03
2018-03-23T07:01:16.301Z,53.90
2018-03-23T07:03:45.786Z,51.27
2018-03-23T07:06:15.362Z,51.07
2018-03-23T07:08:44.284Z,50.23
2018-03-23T07:11:14.049Z,49.00
2018-03-23T07:13:43.060Z,49.43
2018-03-23T07:16:12.065Z,55.10
2018-03-23T07:18:41.698Z,51.73
2018-03-23T07:21:10.472Z,54.57
2018-03-23T07:23:39.358Z,56.73
2018-03-23T07:26:08.518Z,58.60
2018-03-23T07:28:38.327Z,51.07
2018-03-23T07:31:07.432Z,51.37
2018-03-23T07:33:37.205Z,51.37
2018-03-23T07:36:06.023Z,51.37
2018-03-23T07:38:34.845Z,58.17
2018-03-23T07:41:04.153Z,53.50
2018-03-23T07:43:32.966Z,53.97
2018-03-23T07:46:02.562Z,51.40
2018-03-23T07:48:31.599Z,52.20
2018-03-23T07:51:00.513Z,50.90
2018-03-23T07:53:29.783Z,52.23
2018-03-23T07:55:58.905Z,51.93
2018-03-23T07:58:27.692Z,52.93
2018-03-23T08:00:56.500Z,53.27
2018-03-23T08:03:25.408Z,50.47
2018-03-23T08:05:54.313Z,52.43
2018-03-23T08:08:23.262Z,55.07
2018-03-23T08:10:52.922Z,63.27
2018-03-23T08:13:21.810Z,66.90
2018-03-23T08:15:51.441Z,66.20
2018-03-23T08:18:20.522Z,67.93
2018-03-23T08:20:49.436Z,67.33
2018-03-23T08:23:18.319Z,67.13
2018-03-23T08:25:47.231Z,61.30
2018-03-23T08:28:16.260Z,68.60
2018-03-23T08:30:46.290Z,78.40
2018-03-23T08:33:15.900Z,63.53
2018-03-23T08:35:45.416Z,60.90
2018-03-23T08:38:14.380Z,55.53
2018-03-23T08:40:43.193Z,56.43
2018-03-23T08:43:12.796Z,59.73
2018-03-23T08:45:41.708Z,60.80
2018-03-23T08:48:10.725Z,57.23
2018-03-23T08:50:40.147Z,65.73
2018-03-23T08:53:09.080Z,57.80
2018-03-23T08:55:38.878Z,66.03
2018-03-23T08:58:07.808Z,107.83
2018-03-23T09:00:36.730Z,79.43
2018-03-23T09:03:05.778Z,68.43
2018-03-23T09:05:34.641Z,71.97
2018-03-23T09:08:03.574Z,67.10
2018-03-23T09:10:32.636Z,67.50
2018-03-23T09:13:01.708Z,65.87
2018-03-23T09:15:30.577Z,61.63
2018-03-23T09:17:59.444Z,63.37
2018-03-23T09:20:28.212Z,69.07
2018-03-23T09:22:57.431Z,67.23
2018-03-23T09:25:26.350Z,63.53
2018-03-23T09:27:56.850Z,67.47
2018-03-23T09:30:26.750Z,64.60
2018-03-23T09:32:55.683Z,61.93
2018-03-23T09:35:25.107Z,69.67
2018-03-23T09:37:54.124Z,68.63
2018-03-23T09:40:22.848Z,71.40
2018-03-23T09:43:01.035Z,75.63
2018-03-23T09:45:31.898Z,75.93
2018-03-23T09:48:01.196Z,70.37
2018-03-23T09:50:30.642Z,73.77
2018-03-23T09:53:00.322Z,69.93
2018-03-23T09:55:29.785Z,69.87
2018-03-23T09:58:02.976Z,76.90
2018-03-23T10:00:34.452Z,87.40
2018-03-23T10:03:03.760Z,86.67
2018-03-23T10:05:37.604Z,86.33
2018-03-23T10:08:07.539Z,86.67
2018-03-23T10:10:36.751Z,88.33
2018-03-23T10:13:06.284Z,83.87
2018-03-23T10:15:35.215Z,55.40
2018-03-23T10:18:04.120Z,78.77
2018-03-23T10:20:33.197Z,72.77
2018-03-23T10:23:02.864Z,52.37
2018-03-23T10:25:31.867Z,40.17
2018-03-23T10:28:01.107Z,35.37
2018-03-23T10:30:30.012Z,36.83
2018-03-23T10:32:59.051Z,38.43
2018-03-23T10:35:27.958Z,36.03
2018-03-23T10:37:56.838Z,35.13
2018-03-23T10:40:25.657Z,31.10
2018-03-23T10:42:54.604Z,30.60
2018-03-23T10:45:23.441Z,28.43
2018-03-23T10:47:53.864Z,26.80
2018-03-23T10:50:22.883Z,24.17
2018-03-23T10:52:52.375Z,24.13
2018-03-23T10:55:22.548Z,21.73
2018-03-23T10:57:52.452Z,21.87
2018-03-23T11:00:27.450Z,19.20
2018-03-23T11:02:57.153Z,21.03
2018-03-23T11:05:27.008Z,19.43
2018-03-23T11:07:55.916Z,20.47
2018-03-23T11:10:25.909Z,19.50
2018-03-23T11:12:55.487Z,18.77
2018-03-23T11:15:24.562Z,18.17
2018-03-23T11:17:53.717Z,17.13
2018-03-23T11:20:23.329Z,18.57
2018-03-23T11:22:57.906Z,17.60
2018-03-23T11:25:33.054Z,17.77
2018-03-23T11:28:01.927Z,17.83
2018-03-23T11:30:30.838Z,14.10
2018-03-23T11:33:00.109Z,15.20
2018-03-23T11:35:28.919Z,14.93
2018-03-23T11:37:59.344Z,12.97
2018-03-23T11:40:29.010Z,12.53
2018-03-23T11:42:57.839Z,12.50
2018-03-23T11:45:26.972Z,13.40
2018-03-23T11:47:55.830Z,11.97
2018-03-23T11:50:24.720Z,12.30
2018-03-23T11:52:53.632Z,12.23
2018-03-23T11:55:22.520Z,9.53
2018-03-23T11:57:51.436Z,9.80
2018-03-23T12:00:20.308Z,9.37
2018-03-23T12:02:49.100Z,9.33
2018-03-23T12:05:18.057Z,8.93
2018-03-23T12:07:47.808Z,9.33
2018-03-23T12:42:05.430Z,8.60
2018-03-23T12:44:34.659Z,12.67
2018-03-23T12:47:03.659Z,13.80
2018-03-23T12:49:33.114Z,17.43
2018-03-23T12:52:02.445Z,17.23
2018-03-23T12:54:32.228Z,20.73
2018-03-23T12:57:01.396Z,17.17
2018-03-23T12:59:30.429Z,15.77
2018-03-23T13:01:59.433Z,15.47
2018-03-23T13:04:30.016Z,14.83
2018-03-23T13:06:59.056Z,13.23
2018-03-23T13:09:27.995Z,12.93
2018-03-23T13:11:57.912Z,12.47
2018-03-23T13:14:27.324Z,13.17
2018-03-23T13:16:57.098Z,17.27
2018-03-23T13:19:26.082Z,14.93
2018-03-23T13:21:54.970Z,14.90
2018-03-23T13:24:24.105Z,15.67
2018-03-23T13:26:54.036Z,16.97
2018-03-23T13:29:23.108Z,16.37
2018-03-23T13:31:52.908Z,17.73
2018-03-23T13:34:21.880Z,17.40
2018-03-23T13:36:50.921Z,17.53
2018-03-23T13:39:20.685Z,18.03
2018-03-23T13:41:49.751Z,17.27
2018-03-23T13:44:18.787Z,16.83
2018-03-23T13:46:53.435Z,16.77
2018-03-23T13:49:29.687Z,16.40
2018-03-23T13:51:59.588Z,19.73
2018-03-23T13:54:29.573Z,15.53
2018-03-23T13:56:58.542Z,16.33
2018-03-23T13:59:33.812Z,14.20
2018-03-23T14:02:02.892Z,14.90
2018-03-23T14:04:32.554Z,16.73
2018-03-23T14:07:01.659Z,16.10
2018-03-23T14:09:30.899Z,16.70
2018-03-23T14:11:59.994Z,17.27
2018-03-23T14:14:30.120Z,15.07
2018-03-23T14:16:59.057Z,16.03
2018-03-23T14:19:28.130Z,15.87
2018-03-23T14:21:57.224Z,14.53
2018-03-23T14:24:26.239Z,14.73
2018-03-23T14:26:55.323Z,16.63
2018-03-23T14:29:24.536Z,16.00
2018-03-23T14:31:54.601Z,16.17
2018-03-23T14:34:23.672Z,15.70
2018-03-23T14:36:52.565Z,15.43
2018-03-23T14:39:21.577Z,15.47
2018-03-23T14:41:51.391Z,14.57
2018-03-23T14:44:20.282Z,14.77
2018-03-23T14:46:49.284Z,15.23
2018-03-23T14:49:18.266Z,15.70
2018-03-23T14:51:47.245Z,15.50
2018-03-23T14:54:17.052Z,17.10
2018-03-23T14:56:46.669Z,14.13
2018-03-23T14:59:16.881Z,14.53
2018-03-23T15:01:45.893Z,14.00
2018-03-23T15:04:15.940Z,14.67
2018-03-23T15:06:44.917Z,13.70
2018-03-23T15:09:13.880Z,15.23
2018-03-23T15:11:42.882Z,16.17
2018-03-23T15:14:17.931Z,17.10
2018-03-23T15:16:47.350Z,18.17
2018-03-23T15:19:16.692Z,17.00
2018-03-23T15:21:45.776Z,17.27
2018-03-23T15:24:14.798Z,18.27
2018-03-23T15:26:44.143Z,20.70
2018-03-23T15:29:13.059Z,18.80
2018-03-23T15:31:42.108Z,18.87
2018-03-23T15:34:11.879Z,17.83
2018-03-23T15:36:40.938Z,20.10
2018-03-23T15:39:09.924Z,18.23
2018-03-23T15:41:39.663Z,20.53
2018-03-23T15:44:08.883Z,17.60
2018-03-23T15:46:37.824Z,18.97
2018-03-23T15:49:06.920Z,18.33
2018-03-23T15:51:36.128Z,17.37
2018-03-23T15:54:05.168Z,17.83
2018-03-23T15:56:34.470Z,18.93
2018-03-23T15:59:03.408Z,17.27
2018-03-23T16:01:32.488Z,17.63
2018-03-23T16:04:02.221Z,19.17
2018-03-23T16:06:31.383Z,17.30
2018-03-23T16:09:00.520Z,20.93
2018-03-23T16:11:30.427Z,18.83
2018-03-23T16:13:59.645Z,18.17
2018-03-23T16:16:28.741Z,30.30
2018-03-23T16:18:57.789Z,48.57
2018-03-23T16:21:26.780Z,54.53
2018-03-23T16:23:55.992Z,72.03
2018-03-23T16:26:25.127Z,73.93
2018-03-23T16:28:54.104Z,50.67
2018-03-23T16:31:23.395Z,75.63
2018-03-23T16:33:52.507Z,57.27
2018-03-23T16:36:21.922Z,66.50
2018-03-23T16:38:50.864Z,49.77
2018-03-23T16:41:19.854Z,46.33
2018-03-23T16:43:48.986Z,41.67
2018-03-23T16:46:19.270Z,47.10
2018-03-23T16:48:48.272Z,57.73
2018-03-23T16:51:17.343Z,68.97
2018-03-23T16:53:46.599Z,63.37
2018-03-23T16:56:15.990Z,52.33
2018-03-23T16:58:45.133Z,50.30
2018-03-23T17:01:14.228Z,42.17
2018-03-23T17:03:43.548Z,34.33
2018-03-23T17:06:13.281Z,32.83
2018-03-23T17:08:42.342Z,38.67
2018-03-23T17:11:11.489Z,52.93
2018-03-23T17:13:40.890Z,54.90
2018-03-23T17:16:10.012Z,52.77
2018-03-23T17:18:38.962Z,53.30
2018-03-23T17:21:07.992Z,51.40
2018-03-23T17:23:37.195Z,43.33
2018-03-23T17:26:06.599Z,58.40
2018-03-23T17:28:35.764Z,58.40
2018-03-23T17:31:05.075Z,58.17
2018-03-23T17:33:34.030Z,53.73
2018-03-23T17:36:03.042Z,63.90
2018-03-23T17:38:32.124Z,77.00
2018-03-23T17:41:05.217Z,55.60
2018-03-23T17:43:35.252Z,56.10
2018-03-23T17:46:04.600Z,48.27
2018-03-23T17:48:34.543Z,66.00
2018-03-23T17:51:04.431Z,60.37
2018-03-23T17:53:34.994Z,78.97
2018-03-23T17:56:05.751Z,74.60
2018-03-23T17:58:34.734Z,98.20
2018-03-23T18:01:03.757Z,103.50
2018-03-23T18:03:33.764Z,195.67
2018-03-23T18:06:03.290Z,128.83
2018-03-23T18:08:33.824Z,106.03
2018-03-23T18:11:03.058Z,79.80
2018-03-23T18:13:32.981Z,58.73
2018-03-23T18:16:02.965Z,52.67
2018-03-23T18:18:31.898Z,38.57
2018-03-23T18:21:01.096Z,43.97
2018-03-23T18:23:30.280Z,37.67
2018-03-23T18:26:00.120Z,28.70
2018-03-23T18:28:29.034Z,32.30
2018-03-23T18:30:58.131Z,39.57
2018-03-23T18:33:27.195Z,37.60
2018-03-23T18:35:56.243Z,37.57
2018-03-23T18:38:28.314Z,36.97
2018-03-23T18:40:57.374Z,35.93
2018-03-23T18:43:27.369Z,37.50
2018-03-23T18:45:57.489Z,43.00
2018-03-23T18:48:26.428Z,44.33
2018-03-23T18:50:56.263Z,43.97
2018-03-23T18:53:26.076Z,50.73
2018-03-23T18:55:57.387Z,52.77
2018-03-23T18:58:26.374Z,54.20
2018-03-23T19:00:55.547Z,60.40
2018-03-23T19:03:24.494Z,86.77
2018-03-23T19:05:54.626Z,122.87
2018-03-23T19:08:24.453Z,220.13
2018-03-23T19:10:53.568Z,185.13
2018-03-23T19:13:23.695Z,106.07
2018-03-23T19:15:52.770Z,79.33
2018-03-23T19:18:22.139Z,93.77
2018-03-23T19:20:51.186Z,92.07
2018-03-23T19:23:20.446Z,82.53
2018-03-23T19:25:49.509Z,73.70
2018-03-23T19:28:18.472Z,74.80
2018-03-23T19:30:47.395Z,68.63
2018-03-23T19:33:17.368Z,59.77
2018-03-23T19:35:46.372Z,49.17
2018-03-23T19:38:16.243Z,46.63
2018-03-23T19:40:45.268Z,43.97
2018-03-23T19:43:14.536Z,40.20
2018-03-23T19:45:43.478Z,38.20
2018-03-23T19:48:12.452Z,33.40
2018-03-23T19:50:41.572Z,32.35
2018-03-23T19:53:10.872Z,31.37
2018-03-23T19:55:39.852Z,30.87
2018-03-23T19:58:08.786Z,31.67
2018-03-23T20:00:37.968Z,37.17
2018-03-23T20:03:07.029Z,78.28
2018-03-23T20:05:36.043Z,86.78
2018-03-23T20:08:05.460Z,94.50
2018-03-23T20:10:35.243Z,63.23
2018-03-23T20:13:04.352Z,57.28
2018-03-23T20:15:33.696Z,53.75
2018-03-23T20:18:08.359Z,49.72
2018-03-23T20:20:42.908Z,49.40
2018-03-23T20:23:12.011Z,48.22
2018-03-23T20:25:42.125Z,49.95
2018-03-23T20:28:16.700Z,47.75
2018-03-23T20:30:45.770Z,47.97
2018-03-23T20:33:15.582Z,49.53
2018-03-23T20:35:44.641Z,48.13
2018-03-23T20:38:13.874Z,53.28
2018-03-23T20:40:43.110Z,54.72
2018-03-23T20:43:12.049Z,57.03
2018-03-23T20:45:42.081Z,53.33
2018-03-23T20:48:11.091Z,49.80
2018-03-23T20:50:40.116Z,48.38
2018-03-23T20:53:10.151Z,49.65
2018-03-23T20:55:39.079Z,52.75
2018-03-23T20:58:08.474Z,51.67
2018-03-23T21:00:37.559Z,47.97
2018-03-23T21:03:06.572Z,50.25
2018-03-23T21:05:36.279Z,50.83
2018-03-23T21:08:05.605Z,52.33
2018-03-23T21:10:35.516Z,59.00
2018-03-23T21:13:04.671Z,58.33
2018-03-23T21:15:33.792Z,56.15
2018-03-23T21:18:03.568Z,65.22
2018-03-23T21:20:33.483Z,59.53
2018-03-23T21:23:02.543Z,58.33
2018-03-23T21:25:31.570Z,59.70
2018-03-23T21:28:00.630Z,58.20
2018-03-23T21:30:29.632Z,57.83
2018-03-23T21:32:58.578Z,58.08
2018-03-23T21:35:27.545Z,59.10
2018-03-23T21:37:56.514Z,54.75
2018-03-23T21:40:25.607Z,58.33
2018-03-23T21:42:54.609Z,57.05
2018-03-23T21:45:23.590Z,56.33
2018-03-23T21:47:52.522Z,66.97
2018-03-23T21:50:21.506Z,67.90
2018-03-23T21:52:50.588Z,124.80
2018-03-23T21:55:20.526Z,171.10
2018-03-23T21:57:49.524Z,133.45
2018-03-23T22:00:18.513Z,86.72
2018-03-23T22:02:47.397Z,76.68
2018-03-23T22:05:22.380Z,61.17
2018-03-23T22:07:57.157Z,62.15
2018-03-23T22:10:31.704Z,65.00
2018-03-23T22:13:06.160Z,65.47
2018-03-23T22:15:40.944Z,65.97
2018-03-23T22:18:13.773Z,70.40
2018-03-23T22:20:47.386Z,66.28
2018-03-23T22:23:18.846Z,63.25
2018-03-23T22:25:51.299Z,61.40
2018-03-23T22:28:26.132Z,61.03
2018-03-23T22:31:00.123Z,73.20
2018-03-23T22:33:34.346Z,66.25
2018-03-23T22:36:07.251Z,61.72
2018-03-23T22:38:42.529Z,60.33
2018-03-23T22:41:14.634Z,97.18
2018-03-23T22:43:47.690Z,115.88
2018-03-23T22:46:19.483Z,64.80
2018-03-23T22:48:50.863Z,68.43
2018-03-23T22:51:23.914Z,63.87
2018-03-23T22:53:53.740Z,65.37
2018-03-23T22:56:26.924Z,70.40
2018-03-23T22:59:01.697Z,79.28
2018-03-23T23:01:36.604Z,70.97
2018-03-23T23:04:06.279Z,79.70
2018-03-23T23:06:35.357Z,80.22
2018-03-23T23:09:05.366Z,84.93
2018-03-23T23:11:35.213Z,81.12
2018-03-23T23:14:04.348Z,78.97
2018-03-23T23:16:33.305Z,78.05
2018-03-23T23:19:02.587Z,79.47
2018-03-23T23:21:31.624Z,80.45
2018-03-23T23:24:00.570Z,93.32
2018-03-23T23:26:29.730Z,90.60
2018-03-23T23:28:59.566Z,85.68
2018-03-23T23:31:28.568Z,94.05
2018-03-23T23:33:57.743Z,118.15
2018-03-23T23:36:26.912Z,85.45
2018-03-23T23:38:56.407Z,78.40
2018-03-23T23:41:25.395Z,100.57
2018-03-23T23:43:54.319Z,96.72
2018-03-23T23:46:23.579Z,98.55
2018-03-23T23:48:52.546Z,77.53
2018-03-23T23:51:22.435Z,93.12
2018-03-23T23:53:51.394Z,90.28
2018-03-23T23:56:20.307Z,74.32
